Glasgow, Missouri
Current Conditions -  °F | °C
As of 9:35 AM on Thursday 30 Oct 2014 (Local Time) from KVER Reporting Station
Light Rain Light Rain  
Wind Chill:   Ceiling: 7000
Heat Index:   Visibility: 10mi
Dew Point:   Wind: 12mph
Humidity: 80%   Direction: 150°SSE
Pressure: 30.06"   Gusts: NA
Location:  39.23°N, 92.85°W
Report Text: KVER 301435Z AUTO 15010KT 10SM -RA SCT060 OVC070 07/04 A3006 RMK AO2 P0002 T00670035
Loading
Personal Weather Stations






























Interactive Weather Map
Tropical Storm Tracking
New forecast layout! Learn more

10-Day Weather Forecast

Advertisements
Track Severe Weather on mobile